Terminal Aerodrome Forecast
Issued by NWS

Home | Current Version | Previous Version | Text Only | Print | Product List | Glossary On
Versions: 1 2 3 4 5 6 7 8 9 10 11 12 13 14 15 16 17 18 19 20 21
000
FTUS41 KGYX 121120
TAFMHT
TAF
KMHT 121120Z 1212/1312 00000KT 3SM -SN BKN035
      TEMPO 1212/1214 1SM -SN OVC015
     FM121500 11006KT 1/2SM RASN OVC008
     FM121700 11007KT 3SM RA OVC003
     FM121800 11007KT 3SM RA BR OVC008=

USA.gov is the U.S. government's official web portal to all federal, state and local government web resources and services.